Time;durP1;ratioP1;P1;durP2;ratioP2;P2;SDS_P1;SDS_P2;PMS_P1;PMS_P2;Temp;Humidity;BMP_temperature;BMP_pressure;BME280_temperature;BME280_humidity;BME280_pressure;Samples;Min_cycle;Max_cycle;Signal;HPM_P1;HPM_P2
2022/05/10 00:04:02;;;;;;;5.00;4.50;;;;;;;11.97;72.08;96647.47;10352528;28;97206;-65
2022/05/10 00:09:06;;;;;;;6.53;4.80;;;;;;;11.90;72.03;96656.84;10358136;28;97510;-65
2022/05/10 00:14:09;;;;;;;5.37;4.23;;;;;;;11.84;72.18;96652.22;10345097;28;96872;-66
2022/05/10 00:19:16;;;;;;;6.22;4.82;;;;;;;11.62;72.78;96645.56;10351355;28;100244;-65
2022/05/10 00:24:19;;;;;;;6.05;4.40;;;;;;;11.40;73.15;96649.34;10346274;28;97072;-65
2022/05/10 00:29:22;;;;;;;5.32;4.82;;;;;;;11.31;73.72;96651.88;10347486;28;98107;-66
2022/05/10 00:34:29;;;;;;;5.00;4.50;;;;;;;11.34;73.86;96648.94;10356610;28;96950;-65
2022/05/10 00:39:32;;;;;;;5.07;4.47;;;;;;;11.50;72.82;96645.75;10356934;28;100386;-66
2022/05/10 00:44:41;;;;;;;6.03;5.03;;;;;;;11.57;72.48;96648.59;10348828;28;99267;-66
2022/05/10 00:49:53;;;;;;;7.05;5.13;;;;;;;11.36;73.53;96654.88;10353245;28;97260;-66
2022/05/10 00:55:05;;;;;;;6.97;5.65;;;;;;;11.06;74.49;96655.88;10348901;28;99168;-65
2022/05/10 01:00:12;;;;;;;7.30;5.78;;;;;;;10.93;74.76;96650.09;10347329;28;97773;-65
2022/05/10 01:05:25;;;;;;;6.40;5.07;;;;;;;10.91;75.34;96655.50;10353125;28;102072;-65
2022/05/10 01:10:36;;;;;;;5.38;4.82;;;;;;;10.88;75.59;96647.94;10340186;28;97220;-65
2022/05/10 01:15:43;;;;;;;5.15;4.40;;;;;;;11.00;73.92;96653.84;10349969;28;96925;-65
2022/05/10 01:20:50;;;;;;;5.63;5.00;;;;;;;10.91;74.31;96650.25;10343589;28;97987;-65
2022/05/10 01:26:00;;;;;;;8.40;4.82;;;;;;;10.70;75.48;96647.78;10339271;28;98627;-65
2022/05/10 01:31:11;;;;;;;6.15;4.78;;;;;;;10.73;75.30;96641.47;10353405;28;97589;-66
2022/05/10 01:36:23;;;;;;;4.88;4.10;;;;;;;10.72;75.44;96637.19;10350504;28;98184;-65
2022/05/10 01:41:37;;;;;;;5.63;4.30;;;;;;;10.77;74.79;96642.84;10356807;28;99249;-65
2022/05/10 01:46:42;;;;;;;4.60;4.07;;;;;;;10.75;74.23;96632.50;10353542;28;98069;-65
2022/05/10 01:51:50;;;;;;;4.53;3.97;;;;;;;10.57;75.50;96634.19;10350995;28;97203;-65
2022/05/10 01:56:53;;;;;;;8.00;3.80;;;;;;;10.56;74.90;96624.69;10346436;28;96936;-66
2022/05/10 02:01:59;;;;;;;5.05;4.00;;;;;;;10.36;76.21;96629.09;10349495;28;97235;-65
2022/05/10 02:07:09;;;;;;;4.68;3.70;;;;;;;10.38;75.74;96621.97;10347480;28;97172;-65
2022/05/10 02:12:15;;;;;;;4.75;3.55;;;;;;;10.49;74.68;96618.38;10363170;28;97757;-65
2022/05/10 02:17:25;;;;;;;7.13;4.07;;;;;;;10.42;74.85;96612.88;10344689;28;97636;-65
2022/05/10 02:22:35;;;;;;;4.97;4.38;;;;;;;10.41;74.93;96613.84;10352458;28;98958;-65
2022/05/10 02:27:42;;;;;;;4.95;4.45;;;;;;;10.45;74.27;96611.78;10339955;28;97018;-65
2022/05/10 02:33:09;;;;;;;4.18;3.75;;;;;;;10.33;75.02;96613.72;10344807;28;97798;-65
2022/05/10 02:38:15;;;;;;;4.10;3.70;;;;;;;10.25;73.96;96622.22;10351035;28;97711;-65
2022/05/10 02:43:23;;;;;;;4.03;3.60;;;;;;;10.22;73.45;96618.09;10339640;28;100573;-65
2022/05/10 02:48:29;;;;;;;6.05;4.93;;;;;;;10.08;74.52;96615.88;10363081;28;97328;-65
2022/05/10 02:53:32;;;;;;;4.60;3.78;;;;;;;9.92;75.12;96605.94;10342229;28;97240;-66
2022/05/10 02:58:41;;;;;;;3.75;3.35;;;;;;;9.78;75.90;96614.97;10339091;28;101255;-65
2022/05/10 03:03:47;;;;;;;4.32;3.92;;;;;;;9.89;75.28;96621.06;10348448;28;100486;-65
2022/05/10 03:08:51;;;;;;;5.40;4.00;;;;;;;9.84;74.83;96616.25;10356764;28;96838;-65
2022/05/10 03:13:54;;;;;;;4.93;3.77;;;;;;;9.77;75.11;96613.34;10343333;28;97719;-65
2022/05/10 03:18:59;;;;;;;5.43;4.28;;;;;;;9.75;75.42;96607.44;10360103;28;98252;-65
2022/05/10 03:24:02;;;;;;;6.25;4.65;;;;;;;9.57;75.94;96607.22;10356531;28;99429;-66
2022/05/10 03:29:05;;;;;;;5.75;4.22;;;;;;;9.46;76.77;96610.78;10343808;28;97100;-65
2022/05/10 03:39:30;;;;;;;4.85;3.97;;;;;;;9.58;76.18;96602.88;10348589;28;97859;-65
2022/05/10 03:44:33;;;;;;;5.00;4.38;;;;;;;9.60;75.99;96600.94;10353347;28;96948;-65
2022/05/10 03:49:37;;;;;;;5.82;4.88;;;;;;;9.43;76.95;96600.59;10341241;28;97332;-65
2022/05/10 03:54:40;;;;;;;6.17;4.00;;;;;;;9.44;76.81;96609.28;10349952;28;98724;-65
2022/05/10 03:59:43;;;;;;;4.32;3.80;;;;;;;9.44;76.50;96607.47;10354052;28;96839;-65
2022/05/10 04:04:47;;;;;;;5.22;4.32;;;;;;;9.41;76.28;96605.09;10354456;28;98443;-65
2022/05/10 04:09:50;;;;;;;5.13;4.53;;;;;;;9.36;76.31;96607.28;10363528;28;102335;-65
2022/05/10 04:14:53;;;;;;;6.05;4.47;;;;;;;9.16;77.66;96614.19;10355872;28;96897;-65
2022/05/10 04:19:57;;;;;;;5.75;4.97;;;;;;;9.18;78.09;96619.28;10345843;28;97077;-65
2022/05/10 04:25:00;;;;;;;5.30;4.47;;;;;;;9.10;78.37;96625.13;10341696;28;96938;-66
2022/05/10 04:30:05;;;;;;;5.85;4.70;;;;;;;9.22;78.33;96625.88;10361958;28;97134;-65
2022/05/10 04:35:11;;;;;;;5.28;4.57;;;;;;;9.35;78.24;96629.09;10346351;28;96873;-65
2022/05/10 04:45:35;;;;;;;8.65;4.43;;;;;;;9.59;77.58;96625.38;10351661;28;97958;-66
2022/05/10 04:50:40;;;;;;;5.70;3.90;;;;;;;9.72;76.84;96618.13;10344018;28;96980;-65
2022/05/10 04:55:49;;;;;;;4.65;4.15;;;;;;;9.84;76.94;96624.91;10352287;28;97461;-65
2022/05/10 05:00:53;;;;;;;5.43;4.75;;;;;;;9.77;77.45;96633.41;10368161;28;97108;-66
2022/05/10 05:05:58;;;;;;;4.30;3.83;;;;;;;9.74;77.82;96633.66;10352695;28;96938;-66
2022/05/10 05:11:02;;;;;;;4.15;3.70;;;;;;;9.88;77.04;96650.72;10351194;28;96895;-65
2022/05/10 05:16:06;;;;;;;5.13;4.07;;;;;;;9.99;76.82;96648.00;10355792;28;98580;-67
2022/05/10 05:21:10;;;;;;;4.65;4.15;;;;;;;10.17;76.16;96651.63;10354484;28;97550;-66
2022/05/10 05:26:14;;;;;;;4.93;4.00;;;;;;;10.31;75.95;96653.00;10362348;28;96935;-66
2022/05/10 05:31:17;;;;;;;4.72;4.00;;;;;;;10.41;74.86;96653.84;10363194;28;97883;-67
2022/05/10 05:36:21;;;;;;;5.65;4.35;;;;;;;10.59;75.29;96658.38;10353635;28;96958;-66
2022/05/10 05:41:24;;;;;;;5.17;4.67;;;;;;;10.72;74.90;96668.56;10362192;28;96922;-65
2022/05/10 05:46:27;;;;;;;6.05;4.30;;;;;;;10.78;74.51;96670.63;10351788;28;100606;-65
2022/05/10 05:51:31;;;;;;;7.65;4.53;;;;;;;10.81;74.07;96670.34;10364000;28;97990;-66
2022/05/10 05:56:34;;;;;;;6.20;4.90;;;;;;;10.96;74.29;96670.75;10361265;28;97003;-67
2022/05/10 06:01:37;;;;;;;6.13;4.43;;;;;;;11.09;73.66;96665.22;10360739;28;97644;-66
2022/05/10 06:06:41;;;;;;;5.88;4.55;;;;;;;11.13;72.72;96670.03;10363624;28;98886;-66
2022/05/10 06:11:44;;;;;;;7.67;5.50;;;;;;;11.26;73.35;96669.75;10359543;28;98045;-66
2022/05/10 06:16:47;;;;;;;5.43;4.20;;;;;;;11.43;72.88;96670.81;10349528;28;99031;-66
2022/05/10 06:21:52;;;;;;;6.60;5.47;;;;;;;11.57;73.30;96669.53;10359663;28;96762;-66
2022/05/10 06:26:55;;;;;;;5.63;5.03;;;;;;;11.73;73.36;96674.97;10343135;28;96880;-66
2022/05/10 06:31:58;;;;;;;7.32;5.32;;;;;;;11.84;73.27;96683.63;10351257;28;97042;-66
2022/05/10 06:38:15;;;;;;;7.80;5.03;;;;;;;11.96;73.13;96687.69;10345177;28;96722;-66
2022/05/10 06:42:26;;;;;;;6.43;5.40;;;;;;;12.18;73.11;96676.00;10336928;28;97691;-65
2022/05/10 06:47:29;;;;;;;6.47;4.88;;;;;;;12.43;72.75;96684.94;10348138;28;97270;-67
2022/05/10 06:52:33;;;;;;;8.10;4.60;;;;;;;12.66;72.80;96684.50;10341520;28;96897;-67
2022/05/10 06:57:36;;;;;;;6.35;4.75;;;;;;;12.90;72.05;96690.94;10335317;28;98850;-67
2022/05/10 07:02:39;;;;;;;6.93;5.20;;;;;;;13.03;71.60;96689.63;10336234;28;97105;-67
2022/05/10 07:07:44;;;;;;;7.50;5.07;;;;;;;13.19;71.74;96688.09;10335805;28;96744;-67
2022/05/10 07:12:47;;;;;;;5.23;4.37;;;;;;;13.42;71.72;96680.53;10332551;28;97851;-67
2022/05/10 07:17:50;;;;;;;9.18;4.55;;;;;;;13.56;70.96;96687.81;10338017;28;96778;-67
2022/05/10 07:22:55;;;;;;;8.38;3.90;;;;;;;13.75;70.63;96688.59;10343493;28;97006;-67
2022/05/10 07:27:58;;;;;;;6.47;4.53;;;;;;;13.86;70.33;96688.31;10338447;28;96939;-67
2022/05/10 07:33:01;;;;;;;7.18;5.45;;;;;;;14.03;70.25;96688.38;10340748;28;97145;-67
2022/05/10 07:38:06;;;;;;;7.90;4.73;;;;;;;14.22;70.51;96685.50;10341599;28;96803;-67
2022/05/10 07:43:10;;;;;;;7.05;4.53;;;;;;;14.34;69.90;96686.88;10339111;28;96745;-66
2022/05/10 07:48:13;;;;;;;7.07;4.47;;;;;;;14.47;70.03;96685.59;10339701;28;96917;-67
2022/05/10 07:53:18;;;;;;;5.68;3.90;;;;;;;14.70;69.27;96678.75;10341926;28;97111;-67
2022/05/10 07:58:20;;;;;;;6.00;4.18;;;;;;;14.92;68.56;96677.28;10341102;28;96948;-66
2022/05/10 08:03:25;;;;;;;5.32;3.42;;;;;;;15.03;67.18;96673.50;10336324;28;97896;-67
2022/05/10 08:08:33;;;;;;;;;;;;;;;15.05;67.38;96679.41;10343970;28;97060;-67
2022/05/10 08:13:38;;;;;;;5.53;3.40;;;;;;;15.07;67.11;96677.44;10341312;28;96979;-67
2022/05/10 08:18:44;;;;;;;3.97;3.23;;;;;;;15.29;67.39;96670.69;10336381;28;96950;-67
2022/05/10 08:23:52;;;;;;;4.72;3.30;;;;;;;15.41;66.50;96673.78;10340626;28;96854;-67
2022/05/10 08:28:55;;;;;;;3.72;3.20;;;;;;;15.58;66.38;96668.47;10340498;28;96895;-66
2022/05/10 08:34:00;;;;;;;3.97;3.55;;;;;;;15.71;65.95;96668.81;10340156;28;96921;-67
2022/05/10 08:39:05;;;;;;;4.03;3.10;;;;;;;15.99;65.56;96671.00;10347312;28;99672;-67
2022/05/10 08:44:14;;;;;;;3.42;2.92;;;;;;;16.13;65.22;96672.91;10346772;28;97132;-66
2022/05/10 08:49:23;;;;;;;3.58;3.08;;;;;;;16.33;64.76;96664.56;10345673;28;96996;-67
2022/05/10 08:54:29;;;;;;;5.95;3.50;;;;;;;16.62;63.81;96654.19;10349732;28;97065;-67
2022/05/10 08:59:41;;;;;;;4.13;3.40;;;;;;;16.94;62.80;96662.91;10360536;28;100090;-67
2022/05/10 09:04:53;;;;;;;3.83;3.42;;;;;;;17.12;62.50;96656.47;10346907;28;97012;-67
2022/05/10 09:10:04;;;;;;;3.72;3.40;;;;;;;17.38;62.12;96656.88;10341681;28;96842;-67
2022/05/10 09:15:09;;;;;;;4.60;3.85;;;;;;;17.55;61.75;96654.09;10357995;28;96780;-68
2022/05/10 09:20:13;;;;;;;5.85;4.43;;;;;;;17.66;61.42;96648.34;10346373;28;100074;-67
2022/05/10 09:25:35;;;;;;;5.35;3.97;;;;;;;17.86;60.93;96653.94;10345861;28;97804;-67
2022/05/10 09:30:38;;;;;;;5.43;4.93;;;;;;;18.09;59.89;96647.72;10342390;28;96962;-67
2022/05/10 09:35:51;;;;;;;5.13;3.88;;;;;;;18.26;59.91;96646.50;10344805;28;96933;-67
2022/05/10 09:40:56;;;;;;;3.88;3.45;;;;;;;18.43;60.31;96643.59;10345433;28;100062;-68
2022/05/10 09:46:10;;;;;;;5.30;4.13;;;;;;;18.47;58.99;96640.41;10338931;28;97004;-67
2022/05/10 09:51:33;;;;;;;4.22;3.78;;;;;;;18.70;59.11;96634.94;10342667;28;96985;-68
2022/05/10 09:56:41;;;;;;;5.97;3.50;;;;;;;18.83;59.33;96626.31;10345950;28;96892;-68
2022/05/10 10:01:48;;;;;;;3.90;3.15;;;;;;;18.82;58.84;96622.00;10344383;28;98419;-67
2022/05/10 10:07:07;;;;;;;5.05;3.63;;;;;;;19.02;58.24;96621.41;10340360;28;96731;-68
2022/05/10 10:12:16;;;;;;;4.13;3.47;;;;;;;19.23;58.00;96624.00;10354042;28;96887;-67
2022/05/10 10:17:23;;;;;;;3.60;3.30;;;;;;;19.31;57.67;96620.38;10343923;28;99934;-67
2022/05/10 10:22:38;;;;;;;4.55;3.60;;;;;;;19.41;57.35;96620.84;10346798;28;97459;-82
2022/05/10 10:27:48;;;;;;;5.22;3.28;;;;;;;19.47;57.06;96621.94;10370063;28;96938;-80
2022/05/10 10:32:56;;;;;;;5.05;3.50;;;;;;;19.54;57.35;96622.78;10371601;28;96784;-82
2022/05/10 10:48:05;;;;;;;3.83;3.42;;;;;;;19.83;55.47;96602.38;10348179;28;102164;-73
2022/05/10 10:53:11;;;;;;;4.90;3.58;;;;;;;20.06;56.43;96593.28;10360121;28;98351;-74
2022/05/10 10:58:27;;;;;;;3.70;3.10;;;;;;;20.18;54.97;96596.97;10355261;28;96973;-75
2022/05/10 11:03:39;;;;;;;3.60;3.22;;;;;;;20.43;54.73;96576.03;10341822;28;97757;-74
2022/05/10 11:09:21;;;;;;;5.97;3.70;;;;;;;20.72;54.42;96580.16;10348070;28;97004;-74
2022/05/10 11:14:48;;;;;;;3.65;3.35;;;;;;;20.87;54.78;96572.00;10353103;28;97640;-74
2022/05/10 11:20:15;;;;;;;4.35;3.15;;;;;;;21.16;53.69;96569.16;10351535;28;97591;-75
2022/05/10 11:25:47;;;;;;;4.00;2.92;;;;;;;21.44;52.85;96569.69;10347431;28;96918;-75
2022/05/10 11:30:58;;;;;;;3.20;2.90;;;;;;;21.81;51.95;96562.03;10352104;28;97062;-76
2022/05/10 11:36:30;;;;;;;3.47;3.17;;;;;;;22.17;50.66;96555.31;10350564;28;97153;-75
2022/05/10 11:41:38;;;;;;;4.47;2.88;;;;;;;22.25;50.08;96547.09;10339764;28;97282;-76
2022/05/10 11:47:18;;;;;;;3.17;2.88;;;;;;;22.60;48.92;96537.88;10338885;28;96960;-76
2022/05/10 11:52:45;;;;;;;4.03;2.60;;;;;;;22.91;47.91;96529.03;10338807;28;96952;-76
2022/05/10 11:57:51;;;;;;;3.30;2.80;;;;;;;22.96;47.65;96525.69;10313916;28;96892;-76
2022/05/10 12:02:54;;;;;;;3.03;2.17;;;;;;;23.14;46.67;96527.59;10310929;28;96861;-76
2022/05/10 12:08:01;;;;;;;2.97;1.98;;;;;;;23.35;45.54;96524.50;10314533;28;96931;-76
2022/05/10 12:13:08;;;;;;;2.63;2.30;;;;;;;23.65;44.00;96514.94;10339818;28;99842;-76
2022/05/10 12:24:12;;;;;;;2.85;1.52;;;;;;;24.17;40.26;96506.50;10344676;28;96971;-76
2022/05/10 12:30:12;;;;;;;2.03;1.80;;;;;;;24.33;40.14;96497.84;10343190;28;97145;-76
2022/05/10 12:35:36;;;;;;;3.22;2.30;;;;;;;24.48;40.04;96486.72;10342526;28;97007;-76
2022/05/10 12:41:06;;;;;;;2.42;2.13;;;;;;;24.79;39.73;96480.25;10343628;28;96987;-76
2022/05/10 12:46:23;;;;;;;2.30;2.10;;;;;;;25.00;39.26;96475.41;10340000;28;96915;-76
2022/05/10 12:51:40;;;;;;;3.08;2.08;;;;;;;25.12;39.17;96467.38;10341907;28;96783;-76
2022/05/10 12:57:07;;;;;;;2.50;2.08;;;;;;;25.36;39.40;96460.13;10344311;28;96732;-75
2022/05/10 13:02:13;;;;;;;3.70;2.00;;;;;;;25.47;39.03;96453.94;10342068;28;96999;-76
2022/05/10 13:07:28;;;;;;;2.55;1.90;;;;;;;25.68;38.63;96454.38;10338643;28;96869;-76
2022/05/10 13:12:36;;;;;;;2.53;1.88;;;;;;;25.79;38.88;96453.53;10335117;28;97139;-76
2022/05/10 13:17:44;;;;;;;2.30;1.80;;;;;;;25.65;39.08;96436.09;10344134;28;96952;-76
2022/05/10 13:22:50;;;;;;;2.25;1.80;;;;;;;25.71;39.59;96445.88;10342288;28;99842;-76
2022/05/10 13:28:07;;;;;;;2.38;2.10;;;;;;;25.71;38.88;96440.50;10338193;28;96987;-76
2022/05/10 13:33:14;;;;;;;3.08;1.83;;;;;;;25.93;38.52;96427.25;10337613;28;96828;-77
2022/05/10 13:38:26;;;;;;;2.20;1.80;;;;;;;26.19;38.22;96428.53;10340365;28;97031;-76
2022/05/10 13:43:34;;;;;;;2.65;2.00;;;;;;;26.25;37.59;96416.03;10340894;28;96787;-76
2022/05/10 13:48:40;;;;;;;2.38;2.00;;;;;;;26.32;37.62;96409.47;10321771;28;98464;-76
2022/05/10 13:53:43;;;;;;;4.22;2.20;;;;;;;26.68;37.07;96410.00;10344706;28;96814;-74
2022/05/10 13:58:47;;;;;;;2.37;1.77;;;;;;;26.97;36.62;96401.03;10340255;28;96934;-76
2022/05/10 14:03:50;;;;;;;2.75;2.05;;;;;;;27.08;36.71;96390.22;10336934;28;96814;-76
2022/05/10 14:08:54;;;;;;;3.47;1.80;;;;;;;27.50;36.29;96397.66;10343313;28;97194;-76
2022/05/10 14:14:00;;;;;;;2.10;1.88;;;;;;;27.94;35.32;96385.25;10339681;28;96945;-74
2022/05/10 14:19:08;;;;;;;3.10;1.90;;;;;;;28.52;34.58;96383.59;10335902;28;97361;-75
2022/05/10 14:24:18;;;;;;;2.50;1.88;;;;;;;29.45;33.22;96373.28;10341096;28;96954;-76
2022/05/10 14:29:34;;;;;;;2.40;1.77;;;;;;;30.24;31.94;96365.91;10338827;28;96968;-76
2022/05/10 14:34:52;;;;;;;3.88;1.70;;;;;;;31.31;30.74;96364.84;10339406;28;96873;-76
2022/05/10 14:39:56;;;;;;;1.90;1.58;;;;;;;32.38;29.17;96359.00;10335234;28;96952;-77
2022/05/10 14:45:15;;;;;;;2.05;1.40;;;;;;;32.76;28.26;96361.91;10333143;28;96968;-77
2022/05/10 14:50:43;;;;;;;1.75;1.52;;;;;;;33.30;27.37;96347.19;10339198;28;97005;-77
2022/05/10 14:55:48;;;;;;;1.70;1.60;;;;;;;33.68;27.15;96344.53;10338664;28;96810;-77
2022/05/10 15:01:07;;;;;;;2.85;1.80;;;;;;;33.61;26.69;96335.97;10334941;28;96876;-77
2022/05/10 15:06:11;;;;;;;2.35;1.60;;;;;;;33.54;26.90;96335.50;10335224;28;96771;-77
2022/05/10 15:11:14;;;;;;;2.22;1.60;;;;;;;32.66;27.51;96339.25;10338443;28;96998;-77
2022/05/10 15:16:19;;;;;;;1.77;1.60;;;;;;;31.87;28.05;96339.41;10337099;28;97007;-76
2022/05/10 15:21:24;;;;;;;3.58;2.03;;;;;;;31.67;28.41;96334.13;10338650;28;97022;-77
2022/05/10 15:26:31;;;;;;;1.88;1.67;;;;;;;32.03;28.22;96323.09;10337845;28;96898;-77
2022/05/10 15:31:35;;;;;;;1.88;1.52;;;;;;;31.87;28.47;96325.88;10340784;28;97099;-76
2022/05/10 15:36:39;;;;;;;2.70;1.67;;;;;;;31.91;29.02;96320.72;10343252;28;96921;-77
2022/05/10 15:41:42;;;;;;;1.70;1.60;;;;;;;31.43;29.27;96318.63;10346047;28;96967;-77
2022/05/10 15:46:46;;;;;;;3.75;2.03;;;;;;;31.23;29.32;96317.63;10344859;28;99636;-77
2022/05/10 15:51:49;;;;;;;3.03;2.10;;;;;;;31.70;29.20;96320.88;10342086;28;96825;-76
2022/05/10 15:56:52;;;;;;;3.20;1.95;;;;;;;32.97;28.47;96317.28;10346660;28;96720;-77
2022/05/10 16:01:57;;;;;;;2.20;2.00;;;;;;;33.47;27.26;96308.78;10344561;28;96957;-77
2022/05/10 16:07:01;;;;;;;2.20;2.00;;;;;;;33.72;27.73;96313.03;10336713;28;97255;-77
2022/05/10 16:12:05;;;;;;;2.78;1.77;;;;;;;34.30;27.13;96311.06;10338548;28;97624;-76
2022/05/10 16:17:09;;;;;;;2.25;1.88;;;;;;;33.95;26.86;96302.38;10336648;28;96918;-73
2022/05/10 16:22:32;;;;;;;1.95;1.70;;;;;;;33.54;27.07;96308.44;10319768;28;98194;-77
2022/05/10 16:33:03;;;;;;;3.90;2.22;;;;;;;31.69;28.30;96304.94;10323865;28;99755;-77
2022/05/10 16:38:07;;;;;;;3.78;1.80;;;;;;;30.95;29.40;96296.75;10330519;28;96786;-76
2022/05/10 16:43:14;;;;;;;2.00;1.80;;;;;;;30.48;29.76;96298.75;10328394;28;96985;-77
2022/05/10 16:48:18;;;;;;;3.15;2.00;;;;;;;30.35;29.78;96300.13;10337787;28;97682;-77
2022/05/10 16:53:21;;;;;;;2.20;2.00;;;;;;;30.45;29.60;96300.09;10302758;28;98432;-76
2022/05/10 16:58:25;;;;;;;2.17;1.90;;;;;;;30.66;29.70;96308.13;10317531;28;98515;-71
2022/05/10 17:03:29;;;;;;;2.83;2.20;;;;;;;30.20;30.27;96309.06;10326502;28;96797;-76
2022/05/10 17:08:32;;;;;;;4.68;2.05;;;;;;;29.67;30.91;96317.38;10324805;28;98615;-76
2022/05/10 17:13:37;;;;;;;;;;;;;;;29.20;31.46;96307.56;10324986;28;98477;-76
2022/05/10 17:18:41;;;;;;;1.95;1.75;;;;;;;28.75;31.53;96303.63;10325050;28;98497;-76
2022/05/10 17:23:47;;;;;;;2.38;1.52;;;;;;;28.36;31.60;96306.63;10320662;28;97729;-76
2022/05/10 17:28:59;;;;;;;1.70;1.60;;;;;;;27.86;31.85;96301.41;10324453;28;98539;-76
2022/05/10 17:34:09;;;;;;;1.70;1.60;;;;;;;27.34;32.76;96299.31;10323769;28;97827;-74
2022/05/10 17:39:13;;;;;;;4.93;1.80;;;;;;;26.92;33.08;96299.91;10318407;28;96844;-75
2022/05/10 17:44:16;;;;;;;2.92;1.83;;;;;;;26.75;33.54;96298.09;10311329;28;98718;-75
2022/05/10 17:49:20;;;;;;;3.33;2.00;;;;;;;26.63;33.65;96304.66;10306263;28;97195;-75
2022/05/10 17:54:23;;;;;;;5.07;2.10;;;;;;;26.13;33.86;96300.97;10303527;28;96905;-75
2022/05/10 17:59:26;;;;;;;2.27;1.43;;;;;;;25.84;34.33;96301.03;10322284;28;96850;-75
2022/05/10 18:04:36;;;;;;;3.20;1.92;;;;;;;25.48;34.94;96296.94;10320844;28;96837;-74
2022/05/10 18:09:39;;;;;;;5.25;1.90;;;;;;;25.30;35.26;96304.13;10318779;28;97221;-75
2022/05/10 18:14:42;;;;;;;4.40;2.03;;;;;;;24.84;35.98;96296.03;10331382;28;96976;-75
2022/05/10 18:19:46;;;;;;;2.55;2.00;;;;;;;24.53;36.00;96305.25;10328613;28;100534;-73
2022/05/10 18:24:49;;;;;;;2.97;2.15;;;;;;;24.16;36.88;96310.84;10331941;28;96863;-68
2022/05/10 18:29:52;;;;;;;3.53;1.90;;;;;;;23.92;36.35;96310.00;10333021;28;96831;-76
2022/05/10 18:34:57;;;;;;;3.30;1.95;;;;;;;23.60;37.22;96318.28;10330579;28;96839;-71
2022/05/10 18:39:59;;;;;;;4.20;1.83;;;;;;;23.43;37.86;96314.63;10313287;28;97054;-72
2022/05/10 18:45:06;;;;;;;4.70;2.73;;;;;;;23.15;37.98;96319.50;10333356;28;96927;-74
2022/05/10 18:50:12;;;;;;;3.47;2.28;;;;;;;22.87;38.54;96309.41;10313461;28;96911;-79
2022/05/10 18:55:16;;;;;;;4.35;2.20;;;;;;;22.80;38.80;96320.16;10305703;28;96903;-76
2022/05/10 19:00:21;;;;;;;2.70;2.13;;;;;;;22.67;39.51;96324.81;10333217;28;98140;-72
2022/05/10 19:05:27;;;;;;;3.38;2.20;;;;;;;21.99;40.97;96329.13;10338970;28;96980;-74
2022/05/10 19:10:31;;;;;;;2.85;2.15;;;;;;;21.74;41.37;96337.09;10342224;28;97073;-66
2022/05/10 19:15:35;;;;;;;3.35;2.53;;;;;;;21.45;41.98;96340.13;10330642;28;97041;-69
2022/05/10 19:20:39;;;;;;;;;;;;;;;20.79;42.44;96338.59;10342064;28;102050;-69
2022/05/10 19:25:42;;;;;;;5.22;2.30;;;;;;;20.14;43.72;96349.09;10321544;28;96981;-69
2022/05/10 19:30:45;;;;;;;3.17;2.10;;;;;;;19.76;44.14;96353.13;10332227;28;99881;-69
2022/05/10 19:35:50;;;;;;;5.43;1.90;;;;;;;19.54;44.59;96363.13;10316213;28;100030;-68
2022/05/10 19:40:55;;;;;;;3.63;2.00;;;;;;;19.19;45.12;96352.63;10331401;28;96881;-69
2022/05/10 19:46:06;;;;;;;2.90;2.05;;;;;;;18.85;45.74;96366.72;10322501;28;97717;-67
2022/05/10 19:51:11;;;;;;;2.95;1.73;;;;;;;18.42;45.08;96362.41;10324901;28;96814;-69
2022/05/10 19:56:14;;;;;;;2.22;2.00;;;;;;;18.28;45.94;96380.03;10326809;28;97007;-69
2022/05/10 20:06:36;;;;;;;2.72;2.17;;;;;;;17.93;46.45;96379.16;10322095;28;96963;-69
2022/05/10 20:11:41;;;;;;;3.70;2.17;;;;;;;17.65;47.06;96387.00;10314979;28;96780;-68
2022/05/10 20:16:44;;;;;;;3.05;1.90;;;;;;;17.57;46.74;96387.91;10314761;28;97281;-68
2022/05/10 20:21:49;;;;;;;2.70;1.95;;;;;;;17.31;46.93;96381.34;10306299;28;98247;-69
2022/05/10 20:26:55;;;;;;;2.58;2.00;;;;;;;17.02;48.03;96382.22;10316074;28;98058;-69
2022/05/10 20:31:58;;;;;;;4.30;2.25;;;;;;;16.96;48.69;96386.44;10326316;28;97329;-69
2022/05/10 20:37:03;;;;;;;2.20;2.00;;;;;;;16.66;49.89;96392.69;10311810;28;100177;-69
2022/05/10 20:42:06;;;;;;;4.07;2.10;;;;;;;16.46;51.19;96393.22;10310077;28;97086;-68
2022/05/10 20:47:09;;;;;;;3.67;2.10;;;;;;;16.27;51.12;96399.84;10315405;28;97068;-68
2022/05/10 20:52:14;;;;;;;9.65;7.00;;;;;;;16.21;52.43;96404.03;10327093;28;96731;-67
2022/05/10 20:57:18;;;;;;;3.08;2.10;;;;;;;16.15;52.25;96407.38;10334426;28;96844;-69
2022/05/10 21:02:21;;;;;;;2.47;2.28;;;;;;;16.01;52.17;96410.78;10326191;28;100087;-67
2022/05/10 21:12:45;;;;;;;3.15;2.50;;;;;;;15.58;53.58;96402.50;10331215;28;97316;-68
2022/05/10 21:17:48;;;;;;;4.75;3.25;;;;;;;15.58;53.49;96405.16;10320291;28;98852;-70
2022/05/10 21:22:52;;;;;;;4.20;2.63;;;;;;;15.63;53.70;96408.09;10318010;28;97469;-68
2022/05/10 21:27:55;;;;;;;5.05;3.28;;;;;;;15.48;54.44;96400.94;10319015;28;96925;-71
2022/05/10 21:33:02;;;;;;;4.88;3.97;;;;;;;15.49;54.88;96402.59;10316419;28;96892;-67
2022/05/10 21:38:07;;;;;;;5.50;2.78;;;;;;;15.15;54.78;96405.56;10315880;28;98747;-72
2022/05/10 21:43:12;;;;;;;5.50;3.30;;;;;;;15.24;55.04;96403.72;10326630;28;96880;-68
2022/05/10 21:48:17;;;;;;;3.40;2.40;;;;;;;15.28;54.49;96399.75;10319870;28;96849;-68
2022/05/10 21:53:22;;;;;;;6.60;2.55;;;;;;;15.25;54.22;96406.19;10318347;28;97053;-68
2022/05/10 21:58:28;;;;;;;5.05;2.97;;;;;;;14.91;55.62;96401.25;10315724;28;96761;-67
2022/05/10 22:03:31;;;;;;;9.95;8.20;;;;;;;14.75;56.66;96397.69;10325778;28;96825;-68
2022/05/10 22:08:38;;;;;;;14.37;10.67;;;;;;;14.74;55.91;96398.66;10318129;28;97094;-69
2022/05/10 22:13:41;;;;;;;5.72;3.65;;;;;;;14.85;55.34;96399.28;10317281;28;97013;-68
2022/05/10 22:18:44;;;;;;;16.73;12.02;;;;;;;14.67;57.17;96397.69;10322823;28;97235;-69
2022/05/10 22:23:48;;;;;;;4.07;3.30;;;;;;;14.33;57.84;96400.56;10314726;28;96818;-68
2022/05/10 22:28:51;;;;;;;4.13;3.10;;;;;;;13.95;58.78;96397.63;10316801;28;97957;-68
2022/05/10 22:33:55;;;;;;;5.80;3.42;;;;;;;14.07;59.18;96400.75;10328221;28;97303;-69
2022/05/10 22:39:01;;;;;;;3.87;3.47;;;;;;;14.09;58.58;96391.72;10322193;28;97862;-69
2022/05/10 22:44:04;;;;;;;5.32;3.75;;;;;;;14.16;58.53;96399.78;10305503;28;97894;-69
2022/05/10 22:49:07;;;;;;;7.07;3.85;;;;;;;14.25;58.75;96395.31;10314329;28;98498;-69
2022/05/10 22:54:12;;;;;;;4.55;3.92;;;;;;;13.88;60.55;96392.25;10316363;28;97984;-68
2022/05/10 22:59:14;;;;;;;8.57;4.23;;;;;;;13.65;61.15;96396.47;10306366;28;98830;-68
2022/05/10 23:04:17;;;;;;;4.97;3.83;;;;;;;13.74;61.06;96400.75;10319831;28;98674;-68
2022/05/10 23:09:21;;;;;;;4.63;3.95;;;;;;;13.51;61.22;96393.50;10317401;28;96932;-67
2022/05/10 23:14:24;;;;;;;4.20;3.57;;;;;;;13.46;61.00;96395.78;10316403;28;97469;-68
2022/05/10 23:19:28;;;;;;;6.53;3.70;;;;;;;13.39;61.60;96392.19;10323329;28;99345;-67
2022/05/10 23:24:35;;;;;;;5.82;4.15;;;;;;;13.43;62.08;96383.84;10322082;28;98972;-67
2022/05/10 23:29:39;;;;;;;6.20;4.15;;;;;;;13.31;62.64;96385.13;10310138;28;98453;-69
2022/05/10 23:34:42;;;;;;;5.30;4.60;;;;;;;12.87;64.18;96377.41;10313744;28;96973;-68
2022/05/10 23:39:46;;;;;;;4.57;3.90;;;;;;;12.65;65.20;96377.03;10307078;28;96896;-68
2022/05/10 23:44:51;;;;;;;5.67;3.70;;;;;;;12.52;65.24;96373.19;10316182;28;98590;-68
2022/05/10 23:49:54;;;;;;;4.82;3.55;;;;;;;12.55;64.99;96371.06;10313239;28;100664;-69
2022/05/10 23:54:58;;;;;;;4.53;3.88;;;;;;;12.68;64.55;96373.25;10332703;28;96867;-69
